Anaconda, New Mexico
Current Conditions -  °F | °C
As of 1:37 PM on Friday 28 Nov 2014 (Local Time) from KGNT Reporting Station
Clear Clear  
Wind Chill: 66°   Ceiling: Unl
Heat Index: 66°   Visibility: 10mi
Dew Point:   Wind: 0mph
Humidity: 11%   Direction: NA
Pressure: 30.17"   Gusts: NA
Location:  35.2644°N, 107.733°W
Report Text: KGNT 282037Z AUTO 00000KT 10SM CLR 19/M13 A3017 RMK AO2
Loading
Personal Weather Stations






























Interactive Weather Map New forecast layout! Learn more

10-Day Weather Forecast

Advertisements
Track Severe Weather on mobile